Time;durP1;ratioP1;P1;durP2;ratioP2;P2;SDS_P1;SDS_P2;PMS_P1;PMS_P2;Temp;Humidity;BMP_temperature;BMP_pressure;BME280_temperature;BME280_humidity;BME280_pressure;Samples;Min_cycle;Max_cycle;Signal;HPM_P1;HPM_P2
2021/04/05 00:01:04;;;;;;;14.05;3.17;;;;;;;21.33;37.66;100818.75;5051672;28;20030;-73
2021/04/05 00:03:31;;;;;;;9.70;2.20;;;;;;;21.35;37.72;100830.31;5051409;28;20132;-73
2021/04/05 00:05:59;;;;;;;4.07;1.90;;;;;;;21.34;37.67;100821.38;5051318;28;20382;-74
2021/04/05 00:08:26;;;;;;;8.50;2.10;;;;;;;21.35;37.49;100827.63;5051744;28;20037;-73
2021/04/05 00:10:55;;;;;;;10.00;2.67;;;;;;;21.39;37.11;100826.63;5051281;28;20640;-74
2021/04/05 00:13:24;;;;;;;10.38;2.58;;;;;;;21.42;36.80;100832.78;5050620;28;20439;-74
2021/04/05 00:15:51;;;;;;;9.48;2.47;;;;;;;21.43;36.85;100826.50;5050025;28;20562;-74
2021/04/05 00:18:19;;;;;;;6.85;1.80;;;;;;;21.46;36.47;100831.75;5051360;28;20056;-73
2021/04/05 00:20:49;;;;;;;15.32;2.88;;;;;;;21.49;36.64;100820.06;5051192;28;20043;-74
2021/04/05 00:23:17;;;;;;;10.80;2.22;;;;;;;21.47;36.43;100828.16;5051845;28;20661;-73
2021/04/05 00:25:45;;;;;;;5.85;1.90;;;;;;;21.44;36.51;100822.88;5050997;28;20146;-73
2021/04/05 00:28:12;;;;;;;10.98;2.00;;;;;;;21.41;36.81;100822.97;5051346;28;20029;-73
2021/04/05 00:30:41;;;;;;;10.55;2.80;;;;;;;21.41;36.92;100825.66;5050431;28;20045;-73
2021/04/05 00:33:11;;;;;;;8.75;2.25;;;;;;;21.43;36.79;100815.75;5033646;28;20044;-73
2021/04/05 00:35:40;;;;;;;9.30;2.72;;;;;;;21.48;36.51;100829.94;5050766;28;20041;-74
2021/04/05 00:38:08;;;;;;;10.25;2.60;;;;;;;21.49;36.51;100838.88;5050543;28;20079;-73
2021/04/05 00:40:39;;;;;;;7.72;2.63;;;;;;;21.49;36.74;100844.25;5049930;28;20029;-74
2021/04/05 00:43:07;;;;;;;10.95;2.78;;;;;;;21.41;37.10;100831.03;5051323;28;20095;-74
2021/04/05 00:45:34;;;;;;;11.57;2.60;;;;;;;21.37;36.89;100828.47;5049478;28;20099;-73
2021/04/05 00:48:03;;;;;;;8.73;2.38;;;;;;;21.34;36.93;100832.09;5050350;28;20040;-73
2021/04/05 00:50:42;;;;;;;9.02;2.33;;;;;;;21.35;37.12;100824.94;5048261;28;20043;-74
2021/04/05 00:53:10;;;;;;;10.35;2.53;;;;;;;21.31;37.02;100826.84;5050949;28;20400;-74
2021/04/05 00:55:41;;;;;;;9.77;1.85;;;;;;;21.30;37.02;100826.88;5050678;28;20440;-73
2021/04/05 00:58:08;;;;;;;7.25;2.17;;;;;;;21.31;36.73;100826.84;5048439;28;20033;-73
2021/04/05 01:00:39;;;;;;;9.05;2.53;;;;;;;21.36;36.46;100824.91;5049901;28;20036;-74
2021/04/05 01:03:07;;;;;;;8.02;1.90;;;;;;;21.37;36.51;100836.53;5050757;28;20041;-72
2021/04/05 01:05:34;;;;;;;6.68;3.03;;;;;;;21.35;36.96;100830.31;5050081;28;20064;-73
2021/04/05 01:08:03;;;;;;;7.18;2.03;;;;;;;21.29;37.41;100827.78;5050602;28;20101;-73
2021/04/05 01:10:30;;;;;;;11.43;2.40;;;;;;;21.26;37.23;100825.22;5050837;28;20044;-75
2021/04/05 01:12:58;;;;;;;8.43;2.53;;;;;;;21.24;37.35;100821.66;5049745;28;20396;-73
2021/04/05 01:15:25;;;;;;;10.00;1.95;;;;;;;21.22;37.33;100842.31;5048966;28;20488;-73
2021/04/05 01:17:53;;;;;;;8.75;2.72;;;;;;;21.24;37.07;100851.22;5048445;28;20493;-74
2021/04/05 01:20:20;;;;;;;10.57;2.78;;;;;;;21.26;37.15;100847.56;5050268;28;20036;-73
2021/04/05 01:22:52;;;;;;;9.40;1.75;;;;;;;21.26;37.19;100862.81;5050350;28;20568;-74
2021/04/05 01:25:21;;;;;;;9.43;1.95;;;;;;;21.23;37.43;100846.75;5044544;28;20041;-74
2021/04/05 01:27:48;;;;;;;7.25;2.58;;;;;;;21.20;37.28;100861.13;5050784;28;20037;-73
2021/04/05 01:30:30;;;;;;;13.65;2.30;;;;;;;21.19;37.35;100866.56;5050520;28;20033;-73
2021/04/05 01:33:10;;;;;;;7.85;2.13;;;;;;;21.18;37.11;100854.94;5048708;28;20037;-73
2021/04/05 01:35:41;;;;;;;7.22;1.85;;;;;;;21.24;37.06;100859.28;5050446;28;20037;-74
2021/04/05 01:38:11;;;;;;;9.52;2.30;;;;;;;21.25;37.01;100859.22;5050295;28;20041;-73
2021/04/05 01:40:40;;;;;;;10.13;1.88;;;;;;;21.22;37.18;100864.66;5050314;28;20052;-73
2021/04/05 01:43:07;;;;;;;9.45;2.22;;;;;;;21.19;37.13;100859.41;5049033;28;20033;-73
2021/04/05 01:45:35;;;;;;;8.65;1.98;;;;;;;21.23;37.01;100852.13;5049984;28;20124;-74
2021/04/05 01:48:02;;;;;;;9.98;1.98;;;;;;;21.30;36.67;100838.50;5050208;28;20432;-74
2021/04/05 01:50:30;;;;;;;12.07;2.28;;;;;;;21.44;35.94;100839.00;5050170;28;20056;-74
2021/04/05 01:53:02;;;;;;;9.45;2.42;;;;;;;21.60;35.66;100854.69;5049861;28;20041;-73
2021/04/05 01:55:30;;;;;;;14.10;3.65;;;;;;;21.72;35.44;100840.91;5049409;28;20068;-74
2021/04/05 01:57:57;;;;;;;10.48;3.17;;;;;;;21.72;35.39;100841.81;5049981;28;20032;-74
2021/04/05 02:00:29;;;;;;;9.45;2.03;;;;;;;21.79;35.23;100848.72;5050095;28;20132;-74
2021/04/05 02:02:56;;;;;;;8.68;2.63;;;;;;;21.78;35.56;100856.88;5049613;28;20116;-73
2021/04/05 02:05:26;;;;;;;9.68;2.22;;;;;;;21.69;36.18;100827.56;5049985;28;20040;-74
2021/04/05 02:07:54;;;;;;;13.02;2.67;;;;;;;21.50;36.80;100832.56;5048553;28;20045;-73
2021/04/05 02:10:23;;;;;;;12.75;2.22;;;;;;;21.37;37.44;100825.78;5049087;28;20030;-73
2021/04/05 02:12:51;;;;;;;7.15;2.38;;;;;;;21.27;37.61;100817.09;5050325;28;20048;-74
2021/04/05 02:15:19;;;;;;;10.77;2.03;;;;;;;21.21;37.69;100813.69;5049972;28;20033;-73
2021/04/05 02:17:46;;;;;;;10.02;2.95;;;;;;;21.21;37.57;100819.94;5048374;28;20493;-73
2021/04/05 02:20:15;;;;;;;8.88;2.20;;;;;;;21.21;37.45;100819.06;5050460;28;20567;-73
2021/04/05 02:22:45;;;;;;;10.20;2.65;;;;;;;21.23;37.67;100823.47;5050389;28;20041;-73
2021/04/05 02:25:14;;;;;;;10.60;2.42;;;;;;;21.27;37.43;100826.94;5050314;28;20098;-72
2021/04/05 02:27:43;;;;;;;7.63;2.15;;;;;;;21.25;37.64;100828.81;5062657;28;20040;-72
2021/04/05 02:30:22;;;;;;;11.45;2.15;;;;;;;21.23;37.57;100831.53;5052188;28;20029;-73
2021/04/05 02:32:51;;;;;;;10.63;2.50;;;;;;;21.20;37.59;100836.13;5053232;28;20524;-73
2021/04/05 02:35:18;;;;;;;14.65;2.72;;;;;;;21.13;37.88;100831.78;5053700;28;20041;-74
2021/04/05 02:37:45;;;;;;;8.05;2.15;;;;;;;21.08;38.50;100837.25;5052942;28;20037;-72
2021/04/05 02:40:13;;;;;;;9.15;2.55;;;;;;;21.08;38.15;100830.09;5053337;28;20037;-74
2021/04/05 02:42:41;;;;;;;9.27;2.25;;;;;;;21.05;38.24;100835.56;5053723;28;20040;-74
2021/04/05 02:45:10;;;;;;;11.40;2.30;;;;;;;21.04;38.40;100846.34;5052623;28;20035;-73
2021/04/05 02:47:39;;;;;;;11.25;2.70;;;;;;;21.03;38.51;100825.78;5051735;28;20057;-74
2021/04/05 02:50:08;;;;;;;12.68;2.05;;;;;;;20.98;39.05;100820.53;5045267;28;20667;-74
2021/04/05 02:52:36;;;;;;;5.95;2.15;;;;;;;20.97;38.95;100825.94;5052842;28;20048;-74
2021/04/05 02:55:05;;;;;;;6.82;2.38;;;;;;;20.97;38.71;100834.00;5053156;28;20033;-73
2021/04/05 02:57:35;;;;;;;12.27;2.40;;;;;;;20.93;39.26;100833.19;5049949;28;20493;-73
2021/04/05 03:00:07;;;;;;;10.02;2.53;;;;;;;20.93;39.14;100832.31;5051320;28;20397;-72
2021/04/05 03:02:35;;;;;;;9.10;2.42;;;;;;;20.91;38.97;100834.16;5053160;28;20044;-74
2021/04/05 03:05:04;;;;;;;8.20;2.20;;;;;;;20.95;38.64;100833.13;5052665;28;20515;-73
2021/04/05 03:07:31;;;;;;;12.60;2.85;;;;;;;20.94;38.53;100826.88;5052802;28;20035;-74
2021/04/05 03:09:59;;;;;;;8.32;2.33;;;;;;;20.93;39.06;100829.63;5052566;28;20489;-72
2021/04/05 03:12:27;;;;;;;12.90;2.70;;;;;;;20.88;39.23;100815.44;5052379;28;20058;-73
2021/04/05 03:14:55;;;;;;;11.95;2.88;;;;;;;20.88;38.68;100808.25;5051082;28;20556;-74
2021/04/05 03:17:24;;;;;;;8.70;1.75;;;;;;;20.85;39.10;100819.09;5051637;28;20397;-74
2021/04/05 03:19:52;;;;;;;11.00;2.55;;;;;;;20.88;38.77;100831.53;5052465;28;20041;-74
2021/04/05 03:22:21;;;;;;;8.43;2.30;;;;;;;20.88;38.98;100836.91;5052494;28;20045;-74
2021/04/05 03:24:48;;;;;;;12.18;3.05;;;;;;;20.87;38.86;100833.31;5052390;28;20040;-74
2021/04/05 03:27:15;;;;;;;13.38;2.88;;;;;;;20.88;38.70;100836.91;5052330;28;20037;-74
2021/04/05 03:29:44;;;;;;;7.78;2.22;;;;;;;20.87;38.81;100832.47;5051033;28;20055;-73
2021/04/05 03:32:16;;;;;;;15.98;2.78;;;;;;;20.85;39.03;100832.50;5051965;28;20043;-74
2021/04/05 03:34:48;;;;;;;12.40;2.22;;;;;;;20.82;39.53;100834.38;5052158;28;20495;-74
2021/04/05 03:37:19;;;;;;;11.75;2.65;;;;;;;20.79;39.38;100832.66;5051956;28;20091;-73
2021/04/05 03:39:50;;;;;;;10.40;2.45;;;;;;;20.77;39.36;100828.25;5051996;28;20120;-74
2021/04/05 03:42:26;;;;;;;8.70;2.08;;;;;;;20.75;39.66;100839.00;5050832;28;20571;-73
2021/04/05 03:45:00;;;;;;;12.05;2.35;;;;;;;20.70;40.03;100838.25;5048975;28;20033;-73
2021/04/05 03:47:47;;;;;;;9.52;2.28;;;;;;;20.65;40.42;100834.81;5047109;28;20086;-74
2021/04/05 03:50:19;;;;;;;9.55;2.88;;;;;;;20.60;40.63;100826.88;5051793;28;20090;-74
2021/04/05 03:52:50;;;;;;;10.50;2.03;;;;;;;20.58;40.55;100820.66;5052146;28;20489;-74
2021/04/05 03:55:21;;;;;;;10.07;2.33;;;;;;;20.56;40.47;100822.50;5050640;28;20584;-73
2021/04/05 03:57:51;;;;;;;6.82;1.98;;;;;;;20.60;40.24;100807.22;5049437;28;20052;-73
2021/04/05 04:00:22;;;;;;;7.50;2.45;;;;;;;20.58;40.22;100815.28;5051275;28;20029;-73
2021/04/05 04:02:53;;;;;;;10.68;2.78;;;;;;;20.58;40.31;100812.63;5050979;28;20116;-73
2021/04/05 04:05:26;;;;;;;11.73;2.78;;;;;;;20.57;40.62;100812.66;5051742;28;20509;-73
2021/04/05 04:08:04;;;;;;;7.70;2.33;;;;;;;20.53;40.88;100814.53;5050877;28;20076;-73
2021/04/05 04:11:07;;;;;;;12.38;2.72;;;;;;;20.49;41.16;100817.31;5051724;28;20286;-74
2021/04/05 04:13:39;;;;;;;8.88;2.45;;;;;;;20.46;41.30;100817.41;5051970;28;20106;-74
2021/04/05 04:16:09;;;;;;;12.27;2.63;;;;;;;20.41;41.32;100820.19;5050461;28;20040;-73
2021/04/05 04:18:37;;;;;;;10.20;2.50;;;;;;;20.40;41.42;100820.22;5050580;28;20029;-74
2021/04/05 04:21:07;;;;;;;10.93;2.40;;;;;;;20.42;41.49;100821.06;5051102;28;20568;-73
2021/04/05 04:23:35;;;;;;;11.77;2.35;;;;;;;20.41;41.26;100812.16;5050100;28;20128;-73
2021/04/05 04:26:03;;;;;;;11.10;2.60;;;;;;;20.41;41.56;100808.59;5050681;28;20420;-75
2021/04/05 04:28:31;;;;;;;9.10;2.33;;;;;;;20.40;41.18;100829.16;5047123;28;20037;-73
2021/04/05 04:30:59;;;;;;;5.65;2.13;;;;;;;20.40;41.08;100821.13;5050300;28;20033;-73
2021/04/05 04:33:28;;;;;;;8.50;2.53;;;;;;;20.42;41.07;100824.63;5051408;28;21789;-73
2021/04/05 04:35:55;;;;;;;9.50;3.15;;;;;;;20.42;41.08;100827.31;5051103;28;20040;-73
2021/04/05 04:38:24;;;;;;;8.43;2.63;;;;;;;20.43;40.98;100834.44;5036685;28;20037;-73
2021/04/05 04:40:52;;;;;;;7.55;2.13;;;;;;;20.46;40.92;100838.84;5049144;28;20120;-73
2021/04/05 04:43:21;;;;;;;11.93;2.78;;;;;;;20.49;40.84;100847.69;5049534;28;20055;-74
2021/04/05 04:45:48;;;;;;;14.38;2.60;;;;;;;20.53;40.04;100836.00;5049517;28;20033;-75
2021/04/05 04:48:15;;;;;;;8.95;2.88;;;;;;;20.60;39.89;100844.78;5049657;28;20037;-74
2021/04/05 04:50:43;;;;;;;6.55;1.77;;;;;;;20.63;39.63;100839.31;5049425;28;20528;-74
2021/04/05 04:53:10;;;;;;;6.97;1.98;;;;;;;20.68;39.46;100832.91;5050567;28;20069;-74
2021/04/05 04:55:38;;;;;;;12.13;2.42;;;;;;;20.76;39.16;100831.84;5050802;28;20033;-74
2021/04/05 04:58:05;;;;;;;7.72;2.03;;;;;;;20.79;38.84;100847.88;5049577;28;20033;-74
2021/04/05 05:00:34;;;;;;;6.38;2.30;;;;;;;20.82;39.06;100845.09;5050792;28;20063;-74
2021/04/05 05:03:02;;;;;;;10.38;2.60;;;;;;;20.81;39.03;100857.63;5050858;28;20408;-74
2021/04/05 05:05:31;;;;;;;9.05;2.33;;;;;;;20.85;38.99;100859.34;5050205;28;20534;-75
2021/04/05 05:07:59;;;;;;;11.23;2.80;;;;;;;20.86;38.83;100853.06;5049717;28;20037;-74
2021/04/05 05:10:27;;;;;;;8.65;2.92;;;;;;;20.90;38.29;100860.09;5047882;28;20096;-74
2021/04/05 05:12:54;;;;;;;8.75;2.75;;;;;;;20.94;38.07;100868.94;5062262;28;20502;-74
2021/04/05 05:15:23;;;;;;;10.57;2.58;;;;;;;21.00;37.87;100874.19;5050912;28;20037;-76
2021/04/05 05:17:51;;;;;;;9.25;2.80;;;;;;;21.05;37.81;100872.25;5049382;28;20083;-76
2021/04/05 05:20:20;;;;;;;9.80;2.63;;;;;;;21.07;37.52;100886.50;5050002;28;20029;-73
2021/04/05 05:22:51;;;;;;;7.90;2.28;;;;;;;21.14;36.83;100896.16;5049217;28;20051;-74
2021/04/05 05:25:20;;;;;;;7.85;1.90;;;;;;;21.16;37.37;100893.50;5055123;28;20056;-75
2021/04/05 05:27:54;;;;;;;10.38;2.63;;;;;;;21.17;37.67;100904.19;5050195;28;20053;-74
2021/04/05 05:30:22;;;;;;;10.80;2.50;;;;;;;21.14;38.00;100906.91;5050995;28;20044;-75
2021/04/05 05:32:53;;;;;;;9.38;2.67;;;;;;;21.16;37.85;100913.16;5049120;28;20052;-73
2021/04/05 05:35:21;;;;;;;10.73;2.75;;;;;;;21.18;38.03;100911.34;5050078;28;20037;-75
2021/04/05 05:37:49;;;;;;;11.38;2.30;;;;;;;21.19;37.99;100918.47;5049310;28;20132;-74
2021/04/05 05:40:20;;;;;;;8.77;2.33;;;;;;;21.21;38.20;100924.66;5057990;28;20491;-74
2021/04/05 05:42:59;;;;;;;9.15;2.70;;;;;;;21.20;38.42;100928.28;5052545;28;20037;-76
2021/04/05 05:45:31;;;;;;;11.00;3.08;;;;;;;21.20;38.86;100917.53;5061422;28;20047;-74
2021/04/05 05:48:05;;;;;;;13.00;3.75;;;;;;;21.19;38.68;100905.06;5051654;28;20076;-73
2021/04/05 05:50:41;;;;;;;9.63;3.03;;;;;;;21.18;39.12;100900.59;5050299;28;20483;-74
2021/04/05 05:53:20;;;;;;;15.60;3.67;;;;;;;21.17;39.17;100896.13;5049091;28;20029;-74
2021/04/05 05:56:03;;;;;;;16.85;3.63;;;;;;;21.16;38.71;100888.13;5049536;28;20125;-75
2021/04/05 05:58:40;;;;;;;5.90;2.15;;;;;;;21.24;37.30;100891.50;5049755;28;20124;-74
2021/04/05 06:01:14;;;;;;;8.50;2.17;;;;;;;21.32;36.52;100919.91;5050285;28;20037;-74
2021/04/05 06:03:55;;;;;;;9.57;3.10;;;;;;;21.41;36.99;100906.22;5047822;28;20064;-74
2021/04/05 06:06:29;;;;;;;10.50;2.45;;;;;;;21.40;37.38;100896.41;5052406;28;20041;-74
2021/04/05 06:09:04;;;;;;;6.85;2.15;;;;;;;21.45;37.30;100893.63;5053995;28;20031;-74
2021/04/05 06:11:50;;;;;;;9.30;3.42;;;;;;;21.50;37.27;100889.00;5053494;28;20033;-74
2021/04/05 06:14:33;;;;;;;8.27;3.25;;;;;;;21.54;37.05;100903.22;5053385;28;20041;-74
2021/04/05 06:17:13;;;;;;;12.63;3.28;;;;;;;21.56;37.04;100883.44;5053107;28;20041;-74
2021/04/05 06:19:49;;;;;;;12.25;3.30;;;;;;;21.61;37.33;100845.69;5054288;28;20076;-74
2021/04/05 06:22:33;;;;;;;9.27;3.40;;;;;;;21.61;38.21;100868.06;5053763;28;20103;-74
2021/04/05 06:25:07;;;;;;;10.88;3.55;;;;;;;21.59;38.47;100891.44;5053695;28;20036;-74
2021/04/05 06:27:42;;;;;;;7.60;2.75;;;;;;;21.63;38.17;100884.16;5054218;28;20041;-75
2021/04/05 06:30:16;;;;;;;10.57;3.50;;;;;;;21.65;38.55;100885.00;5053686;28;20041;-74
2021/04/05 06:33:06;;;;;;;9.82;3.50;;;;;;;21.67;38.90;100864.31;5053657;28;20033;-74
2021/04/05 06:36:12;;;;;;;7.35;2.90;;;;;;;21.61;40.00;100888.69;5048517;28;20048;-74
2021/04/05 06:38:45;;;;;;;9.13;2.88;;;;;;;21.60;40.08;100889.59;5044494;28;20136;-74
2021/04/05 06:41:37;;;;;;;13.73;2.90;;;;;;;21.64;40.02;100899.38;5053446;28;20381;-74
2021/04/05 06:45:00;;;;;;;9.55;3.47;;;;;;;21.67;40.03;100891.19;5052082;28;20049;-75
2021/04/05 06:47:57;;;;;;;18.25;3.97;;;;;;;21.72;39.83;100903.63;4991495;28;20039;-74
2021/04/05 06:50:32;;;;;;;12.48;3.75;;;;;;;21.77;39.80;100912.41;4990654;28;20129;-75
2021/04/05 06:53:35;;;;;;;8.90;3.40;;;;;;;21.83;39.63;100903.28;5044741;28;20051;-74
2021/04/05 06:56:08;;;;;;;9.65;3.38;;;;;;;21.88;39.49;100898.66;5053044;28;20029;-75
2021/04/05 06:58:49;;;;;;;10.45;3.40;;;;;;;21.97;39.98;100894.88;5053353;28;20049;-75
2021/04/05 07:01:37;;;;;;;14.50;4.50;;;;;;;22.06;40.39;100916.97;5052900;28;20055;-75
2021/04/05 07:04:33;;;;;;;8.15;4.30;;;;;;;22.15;39.78;100881.75;5043534;28;20037;-76
2021/04/05 07:07:11;;;;;;;6.90;2.70;;;;;;;22.25;39.38;100888.59;5053291;28;20064;-76
2021/04/05 07:09:45;;;;;;;8.98;3.40;;;;;;;22.35;38.50;100883.84;5053380;28;20033;-76
2021/04/05 07:12:32;;;;;;;;;;;;;;;22.44;38.02;100898.84;5052593;28;20049;-76
2021/04/05 07:15:25;;;;;;;10.35;3.20;;;;;;;22.50;38.21;100901.31;5051356;28;20169;-75
2021/04/05 07:18:04;;;;;;;13.43;3.42;;;;;;;22.52;38.82;100892.25;5050525;28;20041;-75
2021/04/05 07:20:39;;;;;;;10.13;3.17;;;;;;;22.55;38.44;100888.59;5052499;28;20548;-77
2021/04/05 07:23:15;;;;;;;11.60;3.33;;;;;;;22.58;38.65;100907.31;5053147;28;20060;-77
2021/04/05 07:25:52;;;;;;;12.82;4.30;;;;;;;22.65;38.45;100904.41;5051659;28;20037;-77
2021/04/05 07:28:24;;;;;;;15.50;5.05;;;;;;;22.69;38.54;100889.03;5052903;28;20300;-75
2021/04/05 07:31:14;;;;;;;15.27;5.85;;;;;;;22.72;39.26;100896.13;5052297;28;20033;-75
2021/04/05 07:33:45;;;;;;;15.27;5.50;;;;;;;22.72;39.04;100901.50;5052813;28;20556;-76
2021/04/05 07:36:18;;;;;;;12.48;4.97;;;;;;;22.76;38.98;100882.56;5052347;28;20045;-75
2021/04/05 07:38:55;;;;;;;12.65;4.50;;;;;;;22.76;38.99;100885.25;5052603;28;20037;-76
2021/04/05 07:41:31;;;;;;;12.32;4.25;;;;;;;22.73;39.55;100889.84;5051623;28;20037;-75
2021/04/05 07:44:27;;;;;;;13.65;4.05;;;;;;;22.78;39.31;100893.25;5052788;28;20041;-76
2021/04/05 07:47:07;;;;;;;13.85;3.92;;;;;;;22.83;39.07;100918.25;5034756;28;20076;-75
2021/04/05 07:49:41;;;;;;;18.70;6.20;;;;;;;22.91;38.99;100930.50;5052254;28;20511;-76
2021/04/05 07:52:20;;;;;;;14.77;6.57;;;;;;;22.97;39.17;100946.47;5052260;28;20045;-75
2021/04/05 07:54:48;;;;;;;12.13;4.30;;;;;;;22.95;39.30;100944.78;5051744;28;20043;-75
2021/04/05 07:57:24;;;;;;;10.88;5.07;;;;;;;22.96;39.62;100946.53;5052087;28;20397;-75
2021/04/05 07:59:59;;;;;;;19.58;4.80;;;;;;;22.92;39.38;100959.19;5052379;28;20037;-74
2021/04/05 08:02:38;;;;;;;14.55;4.55;;;;;;;22.88;39.24;100954.88;5031842;28;20038;-75
2021/04/05 08:05:17;;;;;;;9.30;3.40;;;;;;;22.85;39.27;100963.03;5040414;28;20044;-76
2021/04/05 08:08:01;;;;;;;13.38;3.65;;;;;;;22.85;39.29;100951.38;5051320;28;20512;-75
2021/04/05 08:10:36;;;;;;;5.95;2.70;;;;;;;22.82;38.98;100960.44;5050869;28;20447;-75
2021/04/05 08:13:12;;;;;;;12.55;3.13;;;;;;;22.83;39.17;100978.38;5051007;28;20033;-75
2021/04/05 08:15:56;;;;;;;9.85;3.17;;;;;;;22.85;39.12;100999.84;5050876;28;20059;-74
2021/04/05 08:18:29;;;;;;;10.68;3.10;;;;;;;22.87;39.24;101039.25;5050906;28;20040;-74
2021/04/05 08:21:05;;;;;;;11.93;3.75;;;;;;;22.94;39.53;101024.69;5051719;28;20413;-75
2021/04/05 08:23:45;;;;;;;9.57;2.63;;;;;;;22.95;39.77;101031.84;5050724;28;20032;-74
2021/04/05 08:26:25;;;;;;;13.48;2.95;;;;;;;22.99;40.17;101033.50;5051660;28;20041;-76
2021/04/05 08:29:03;;;;;;;11.63;3.47;;;;;;;23.10;39.84;101034.97;5051303;28;20771;-74
2021/04/05 08:31:37;;;;;;;14.35;5.50;;;;;;;23.18;39.60;101028.41;5051507;28;20033;-75
2021/04/05 08:34:16;;;;;;;8.80;2.97;;;;;;;23.28;39.53;101027.19;5051261;28;20036;-75
2021/04/05 08:36:56;;;;;;;11.13;2.38;;;;;;;23.37;39.80;101020.59;5050398;28;20041;-75
2021/04/05 08:39:29;;;;;;;13.63;3.22;;;;;;;23.47;39.95;101031.97;5051536;28;20045;-75
2021/04/05 08:42:02;;;;;;;11.90;4.05;;;;;;;23.54;40.22;101026.34;5050979;28;20033;-75
2021/04/05 08:44:38;;;;;;;10.07;2.85;;;;;;;23.61;40.29;101029.72;5050907;28;20045;-75
2021/04/05 08:47:13;;;;;;;9.10;2.72;;;;;;;23.73;39.75;101027.50;5051336;28;20755;-75
2021/04/05 08:49:41;;;;;;;;;;;;;;;23.84;39.44;101013.63;5050870;28;20056;-75
2021/04/05 08:52:12;;;;;;;7.20;2.00;;;;;;;23.91;39.20;101020.56;5049098;28;19924;-74
2021/04/05 08:54:42;;;;;;;11.35;2.88;;;;;;;23.92;38.98;101010.66;5050309;28;20096;-76
2021/04/05 08:57:12;;;;;;;9.13;2.78;;;;;;;23.93;39.08;101021.41;5050214;28;20041;-75
2021/04/05 08:59:47;;;;;;;7.47;2.42;;;;;;;23.95;39.10;101013.25;5050445;28;20045;-76
2021/04/05 09:02:21;;;;;;;12.00;3.08;;;;;;;23.91;39.16;101014.28;5051205;28;20025;-74
2021/04/05 09:04:49;;;;;;;;;;;;;;;23.93;38.97;101036.69;5051181;28;20476;-75
2021/04/05 09:07:33;;;;;;;8.60;2.35;;;;;;;23.98;38.66;101041.00;5051031;28;19925;-75
2021/04/05 09:10:05;;;;;;;11.65;3.72;;;;;;;24.07;38.50;101037.09;5031280;28;20207;-75
2021/04/05 09:12:35;;;;;;;9.65;2.80;;;;;;;24.23;38.06;101065.31;5030935;28;20041;-75
2021/04/05 09:15:27;;;;;;;10.93;2.55;;;;;;;24.42;37.99;101070.91;5041255;28;20033;-74
2021/04/05 09:18:19;;;;;;;8.40;2.72;;;;;;;24.59;37.66;101068.50;5048451;28;20037;-75
2021/04/05 09:21:01;;;;;;;7.40;2.20;;;;;;;24.62;37.44;101073.75;5049619;28;20485;-74
2021/04/05 09:23:56;;;;;;;9.43;2.80;;;;;;;24.59;36.62;101063.97;5032541;28;20038;-74
2021/04/05 09:26:44;;;;;;;8.82;2.40;;;;;;;24.48;36.94;101059.94;5050445;28;20140;-76
2021/04/05 09:29:20;;;;;;;7.97;2.15;;;;;;;24.35;37.13;101067.56;5050859;28;20045;-75
2021/04/05 09:32:29;;;;;;;13.48;2.28;;;;;;;24.34;37.25;101054.16;5064828;28;20045;-76
2021/04/05 09:35:31;;;;;;;15.20;3.22;;;;;;;24.37;37.17;101052.22;5050898;28;20064;-75
2021/04/05 09:38:22;;;;;;;7.60;2.60;;;;;;;24.41;36.98;101053.88;5054408;28;20128;-75
2021/04/05 09:41:04;;;;;;;10.88;3.90;;;;;;;24.62;36.46;101028.75;5034827;28;20053;-77
2021/04/05 09:44:00;;;;;;;10.63;3.60;;;;;;;24.69;36.13;101024.00;5034699;28;20042;-77
2021/04/05 09:46:49;;;;;;;8.18;2.60;;;;;;;24.95;36.06;101017.59;5053116;28;20631;-77
2021/04/05 09:49:25;;;;;;;9.23;2.10;;;;;;;25.34;35.72;101012.41;5054794;28;20067;-75
2021/04/05 09:52:21;;;;;;;11.32;2.97;;;;;;;25.38;34.69;101008.66;5054356;28;20033;-76
2021/04/05 09:54:53;;;;;;;11.35;2.30;;;;;;;25.35;34.47;101017.75;5054307;28;20123;-75
2021/04/05 09:57:29;;;;;;;11.82;2.67;;;;;;;25.31;33.72;101009.84;5054677;28;20041;-75
2021/04/05 09:59:59;;;;;;;11.25;2.50;;;;;;;25.21;33.79;100990.41;5054158;28;20151;-75
2021/04/05 10:02:33;;;;;;;7.50;2.38;;;;;;;25.15;34.19;100992.47;5034302;28;20048;-75
2021/04/05 10:05:02;;;;;;;9.20;2.45;;;;;;;25.13;33.66;100995.28;5053161;28;20715;-75
2021/04/05 10:07:30;;;;;;;8.68;2.63;;;;;;;25.30;33.44;100987.34;5054009;28;20041;-75
2021/04/05 10:10:01;;;;;;;9.25;2.38;;;;;;;25.37;33.16;100988.84;5053160;28;20100;-77
2021/04/05 10:12:31;;;;;;;5.50;1.83;;;;;;;25.39;32.79;100991.50;5053223;28;20179;-75
2021/04/05 10:14:59;;;;;;;9.77;2.30;;;;;;;25.41;33.18;101005.81;5054131;28;20047;-75
2021/04/05 10:17:28;;;;;;;8.23;2.17;;;;;;;25.56;33.01;100994.34;5054237;28;20048;-74
2021/04/05 10:19:57;;;;;;;10.98;2.45;;;;;;;25.57;33.14;100995.22;5053842;28;20120;-75
2021/04/05 10:22:24;;;;;;;8.00;2.60;;;;;;;25.65;33.08;101002.13;5053792;28;20075;-75
2021/04/05 10:25:00;;;;;;;6.78;2.33;;;;;;;25.75;32.28;101013.41;5054072;28;20519;-75
2021/04/05 10:27:28;;;;;;;6.38;2.10;;;;;;;25.73;32.49;101020.72;5054316;28;20041;-75
2021/04/05 10:29:56;;;;;;;7.75;2.28;;;;;;;25.71;32.88;101007.25;5053449;28;20041;-75
2021/04/05 10:32:25;;;;;;;8.52;2.65;;;;;;;25.70;31.89;101002.78;5052756;28;20037;-77
2021/04/05 10:34:56;;;;;;;11.15;2.38;;;;;;;25.73;32.10;100994.53;5052796;28;20048;-75
2021/04/05 10:37:27;;;;;;;11.27;3.25;;;;;;;25.87;31.93;101002.03;5053235;28;20500;-75
2021/04/05 10:39:55;;;;;;;8.77;2.80;;;;;;;26.13;32.06;100996.34;5051947;28;20040;-74
2021/04/05 10:42:26;;;;;;;8.30;2.60;;;;;;;26.43;31.83;100988.72;5049884;28;20037;-75
2021/04/05 10:45:02;;;;;;;9.35;2.53;;;;;;;26.50;31.75;100970.34;5053062;28;20120;-75
2021/04/05 10:47:35;;;;;;;14.65;3.53;;;;;;;26.31;31.53;100958.63;5052307;28;20116;-78
2021/04/05 10:50:06;;;;;;;9.77;3.05;;;;;;;26.09;31.54;100970.38;5053210;28;20493;-76
2021/04/05 10:52:40;;;;;;;7.53;1.98;;;;;;;25.97;31.56;100957.41;5052838;28;20129;-76
2021/04/05 10:55:19;;;;;;;6.90;2.10;;;;;;;25.82;31.62;100966.19;5053261;28;20051;-76
2021/04/05 10:57:53;;;;;;;6.72;2.00;;;;;;;25.74;31.64;100969.25;5032020;28;20071;-75
2021/04/05 11:00:22;;;;;;;;;;;;;;;25.74;31.55;100981.88;5034000;28;20615;-76
2021/04/05 11:02:56;;;;;;;11.05;3.03;;;;;;;25.71;31.74;100987.44;5035777;28;19935;-75
2021/04/05 11:05:25;;;;;;;10.07;3.13;;;;;;;25.73;32.26;101001.78;5052457;28;20037;-75
2021/04/05 11:07:58;;;;;;;11.70;2.75;;;;;;;25.74;31.72;101003.53;5043385;28;20041;-76
2021/04/05 11:10:29;;;;;;;8.00;2.20;;;;;;;25.73;31.91;101008.06;5053171;28;20522;-77
2021/04/05 11:12:58;;;;;;;7.78;2.65;;;;;;;25.88;32.24;101002.94;5050211;28;20037;-75
2021/04/05 11:15:27;;;;;;;13.15;2.47;;;;;;;25.85;31.97;100994.97;5037656;28;20741;-76
2021/04/05 11:17:57;;;;;;;8.52;3.88;;;;;;;25.72;31.89;100998.19;5036750;28;20679;-75
2021/04/05 11:20:29;;;;;;;5.95;3.05;;;;;;;25.63;31.94;101008.53;5040785;28;20108;-75
2021/04/05 11:22:59;;;;;;;4.78;1.92;;;;;;;25.42;31.54;101002.16;5035642;28;20041;-74
2021/04/05 11:25:32;;;;;;;9.40;2.90;;;;;;;25.38;31.92;100995.13;5045443;28;20389;-74
2021/04/05 11:28:08;;;;;;;10.40;3.65;;;;;;;25.27;31.80;101000.97;5036828;28;20125;-76
2021/04/05 11:30:38;;;;;;;12.20;3.88;;;;;;;25.22;32.31;100999.41;5039196;28;20443;-74
2021/04/05 11:33:08;;;;;;;11.50;3.35;;;;;;;25.16;32.07;100995.13;5040970;28;20033;-74
2021/04/05 11:35:36;;;;;;;6.95;2.67;;;;;;;25.06;32.36;100988.34;5039053;28;20536;-76
2021/04/05 11:38:07;;;;;;;7.60;2.58;;;;;;;24.99;32.11;100982.31;5041775;28;20049;-74
2021/04/05 11:40:36;;;;;;;8.48;2.60;;;;;;;24.78;32.31;100966.94;5040201;28;20421;-74
2021/04/05 11:43:14;;;;;;;11.85;2.80;;;;;;;24.59;32.17;100979.41;5041284;28;20076;-74
2021/04/05 11:45:44;;;;;;;13.35;2.70;;;;;;;24.83;32.01;100980.25;5040369;28;20049;-72
2021/04/05 11:48:15;;;;;;;8.73;2.70;;;;;;;24.88;32.07;100970.13;5042208;28;20045;-73
2021/04/05 11:50:43;;;;;;;7.95;2.00;;;;;;;24.78;32.14;100974.16;5039046;28;20053;-74